sensor_id;sensor_type;location;lat;lon;timestamp;P1;durP1;ratioP1;P2;durP2;ratioP2
58992;SDS011;44782;0.000;0.000;2023-02-28T00:01:42;1.77;;;1.67;;
58992;SDS011;44782;0.000;0.000;2023-02-28T00:03:57;1.77;;;1.67;;
58992;SDS011;44782;0.000;0.000;2023-02-28T00:06:13;1.80;;;1.70;;
58992;SDS011;44782;0.000;0.000;2023-02-28T00:08:29;2.03;;;1.80;;
58992;SDS011;44782;0.000;0.000;2023-02-28T00:10:45;1.60;;;1.50;;
58992;SDS011;44782;0.000;0.000;2023-02-28T00:13:02;1.60;;;1.50;;
58992;SDS011;44782;0.000;0.000;2023-02-28T00:15:20;1.80;;;1.70;;
58992;SDS011;44782;0.000;0.000;2023-02-28T00:17:37;1.90;;;1.80;;
58992;SDS011;44782;0.000;0.000;2023-02-28T00:19:53;1.70;;;1.60;;
58992;SDS011;44782;0.000;0.000;2023-02-28T00:22:09;1.70;;;1.60;;
58992;SDS011;44782;0.000;0.000;2023-02-28T00:24:24;1.70;;;1.60;;
58992;SDS011;44782;0.000;0.000;2023-02-28T00:26:40;1.73;;;1.63;;
58992;SDS011;44782;0.000;0.000;2023-02-28T00:28:56;1.90;;;1.80;;
58992;SDS011;44782;0.000;0.000;2023-02-28T00:31:11;1.70;;;1.60;;
58992;SDS011;44782;0.000;0.000;2023-02-28T00:33:27;1.60;;;1.50;;
58992;SDS011;44782;0.000;0.000;2023-02-28T00:35:43;1.70;;;1.60;;
58992;SDS011;44782;0.000;0.000;2023-02-28T00:38:01;1.80;;;1.70;;
58992;SDS011;44782;0.000;0.000;2023-02-28T00:40:17;1.90;;;1.80;;
58992;SDS011;44782;0.000;0.000;2023-02-28T00:42:36;1.80;;;1.70;;
58992;SDS011;44782;0.000;0.000;2023-02-28T00:44:52;2.00;;;1.67;;
58992;SDS011;44782;0.000;0.000;2023-02-28T00:47:07;1.93;;;1.80;;
58992;SDS011;44782;0.000;0.000;2023-02-28T00:49:23;1.50;;;1.40;;
58992;SDS011;44782;0.000;0.000;2023-02-28T00:51:39;1.80;;;1.70;;
58992;SDS011;44782;0.000;0.000;2023-02-28T00:53:55;1.97;;;1.60;;
58992;SDS011;44782;0.000;0.000;2023-02-28T00:56:11;2.17;;;1.53;;
58992;SDS011;44782;0.000;0.000;2023-02-28T00:58:26;1.90;;;1.80;;
58992;SDS011;44782;0.000;0.000;2023-02-28T01:00:42;1.67;;;1.57;;
58992;SDS011;44782;0.000;0.000;2023-02-28T01:02:58;2.00;;;1.73;;
58992;SDS011;44782;0.000;0.000;2023-02-28T01:05:13;1.80;;;1.70;;
58992;SDS011;44782;0.000;0.000;2023-02-28T01:07:30;1.93;;;1.80;;
58992;SDS011;44782;0.000;0.000;2023-02-28T01:09:46;2.00;;;1.80;;
58992;SDS011;44782;0.000;0.000;2023-02-28T01:12:02;1.80;;;1.70;;
58992;SDS011;44782;0.000;0.000;2023-02-28T01:14:18;1.97;;;1.80;;
58992;SDS011;44782;0.000;0.000;2023-02-28T01:16:33;2.00;;;1.60;;
58992;SDS011;44782;0.000;0.000;2023-02-28T01:18:49;1.70;;;1.60;;
58992;SDS011;44782;0.000;0.000;2023-02-28T01:21:08;1.80;;;1.70;;
58992;SDS011;44782;0.000;0.000;2023-02-28T01:23:28;1.73;;;1.57;;
58992;SDS011;44782;0.000;0.000;2023-02-28T01:25:44;1.90;;;1.70;;
58992;SDS011;44782;0.000;0.000;2023-02-28T01:28:00;1.93;;;1.83;;
58992;SDS011;44782;0.000;0.000;2023-02-28T01:30:15;1.97;;;1.87;;
58992;SDS011;44782;0.000;0.000;2023-02-28T01:32:31;1.90;;;1.70;;
58992;SDS011;44782;0.000;0.000;2023-02-28T01:34:47;1.90;;;1.80;;
58992;SDS011;44782;0.000;0.000;2023-02-28T01:37:02;2.07;;;1.80;;
58992;SDS011;44782;0.000;0.000;2023-02-28T01:39:18;1.80;;;1.70;;
58992;SDS011;44782;0.000;0.000;2023-02-28T01:41:34;1.70;;;1.60;;
58992;SDS011;44782;0.000;0.000;2023-02-28T01:46:12;2.13;;;1.93;;
58992;SDS011;44782;0.000;0.000;2023-02-28T01:48:30;2.23;;;1.43;;
58992;SDS011;44782;0.000;0.000;2023-02-28T01:50:50;1.80;;;1.70;;
58992;SDS011;44782;0.000;0.000;2023-02-28T01:53:06;1.90;;;1.80;;
58992;SDS011;44782;0.000;0.000;2023-02-28T01:55:25;2.10;;;1.90;;
58992;SDS011;44782;0.000;0.000;2023-02-28T01:57:46;1.97;;;1.83;;
58992;SDS011;44782;0.000;0.000;2023-02-28T02:00:10;2.00;;;1.80;;
58992;SDS011;44782;0.000;0.000;2023-02-28T02:02:29;1.87;;;1.70;;
58992;SDS011;44782;0.000;0.000;2023-02-28T02:04:56;2.10;;;1.87;;
58992;SDS011;44782;0.000;0.000;2023-02-28T02:09:43;1.70;;;1.60;;
58992;SDS011;44782;0.000;0.000;2023-02-28T02:11:58;1.73;;;1.63;;
58992;SDS011;44782;0.000;0.000;2023-02-28T02:22:30;1.70;;;1.60;;
58992;SDS011;44782;0.000;0.000;2023-02-28T02:25:53;2.07;;;1.87;;
58992;SDS011;44782;0.000;0.000;2023-02-28T02:36:23;2.20;;;2.00;;
58992;SDS011;44782;0.000;0.000;2023-02-28T02:41:35;2.13;;;1.93;;
58992;SDS011;44782;0.000;0.000;2023-02-28T02:44:01;2.27;;;2.10;;
58992;SDS011;44782;0.000;0.000;2023-02-28T02:46:33;2.30;;;2.10;;
58992;SDS011;44782;0.000;0.000;2023-02-28T02:48:53;1.80;;;1.70;;
58992;SDS011;44782;0.000;0.000;2023-02-28T02:51:13;2.07;;;1.97;;
58992;SDS011;44782;0.000;0.000;2023-02-28T02:53:33;1.83;;;1.73;;
58992;SDS011;44782;0.000;0.000;2023-02-28T02:55:51;1.80;;;1.70;;
58992;SDS011;44782;0.000;0.000;2023-02-28T02:58:10;1.83;;;1.73;;
58992;SDS011;44782;0.000;0.000;2023-02-28T03:00:39;1.93;;;1.83;;
58992;SDS011;44782;0.000;0.000;2023-02-28T03:02:58;2.03;;;1.93;;
58992;SDS011;44782;0.000;0.000;2023-02-28T03:05:19;2.23;;;1.80;;
58992;SDS011;44782;0.000;0.000;2023-02-28T03:07:45;2.10;;;2.00;;
58992;SDS011;44782;0.000;0.000;2023-02-28T03:10:00;2.03;;;1.93;;
58992;SDS011;44782;0.000;0.000;2023-02-28T03:12:19;2.07;;;1.80;;
58992;SDS011;44782;0.000;0.000;2023-02-28T03:17:45;1.90;;;1.70;;
58992;SDS011;44782;0.000;0.000;2023-02-28T03:22:44;2.10;;;1.90;;
58992;SDS011;44782;0.000;0.000;2023-02-28T03:25:16;1.97;;;1.87;;
58992;SDS011;44782;0.000;0.000;2023-02-28T03:34:50;2.20;;;2.00;;
58992;SDS011;44782;0.000;0.000;2023-02-28T03:37:22;2.07;;;1.90;;
58992;SDS011;44782;0.000;0.000;2023-02-28T03:41:59;2.20;;;1.97;;
58992;SDS011;44782;0.000;0.000;2023-02-28T03:44:20;2.33;;;2.00;;
58992;SDS011;44782;0.000;0.000;2023-02-28T03:46:50;1.97;;;1.87;;
58992;SDS011;44782;0.000;0.000;2023-02-28T03:49:16;2.00;;;1.90;;
58992;SDS011;44782;0.000;0.000;2023-02-28T03:51:35;1.93;;;1.80;;
58992;SDS011;44782;0.000;0.000;2023-02-28T03:53:53;2.30;;;2.10;;
58992;SDS011;44782;0.000;0.000;2023-02-28T03:56:32;2.27;;;2.07;;
58992;SDS011;44782;0.000;0.000;2023-02-28T04:01:19;2.50;;;2.30;;
58992;SDS011;44782;0.000;0.000;2023-02-28T04:03:40;2.00;;;1.90;;
58992;SDS011;44782;0.000;0.000;2023-02-28T04:05:56;2.07;;;1.87;;
58992;SDS011;44782;0.000;0.000;2023-02-28T04:08:13;2.17;;;1.97;;
58992;SDS011;44782;0.000;0.000;2023-02-28T04:10:28;2.00;;;1.90;;
58992;SDS011;44782;0.000;0.000;2023-02-28T04:12:44;2.40;;;2.20;;
58992;SDS011;44782;0.000;0.000;2023-02-28T04:15:00;2.40;;;2.20;;
58992;SDS011;44782;0.000;0.000;2023-02-28T04:17:16;2.07;;;1.93;;
58992;SDS011;44782;0.000;0.000;2023-02-28T04:19:32;2.03;;;1.83;;
58992;SDS011;44782;0.000;0.000;2023-02-28T04:21:49;2.17;;;2.00;;
58992;SDS011;44782;0.000;0.000;2023-02-28T04:24:06;2.30;;;2.10;;
58992;SDS011;44782;0.000;0.000;2023-02-28T04:26:23;2.40;;;2.20;;
58992;SDS011;44782;0.000;0.000;2023-02-28T04:28:39;2.50;;;2.30;;
58992;SDS011;44782;0.000;0.000;2023-02-28T04:30:58;2.20;;;2.00;;
58992;SDS011;44782;0.000;0.000;2023-02-28T04:33:16;2.20;;;2.00;;
58992;SDS011;44782;0.000;0.000;2023-02-28T04:35:31;2.20;;;2.00;;
58992;SDS011;44782;0.000;0.000;2023-02-28T04:37:47;2.40;;;2.20;;
58992;SDS011;44782;0.000;0.000;2023-02-28T04:40:03;2.33;;;2.13;;
58992;SDS011;44782;0.000;0.000;2023-02-28T04:42:19;2.13;;;2.03;;
58992;SDS011;44782;0.000;0.000;2023-02-28T04:44:34;1.97;;;1.83;;
58992;SDS011;44782;0.000;0.000;2023-02-28T04:46:50;2.23;;;2.10;;
58992;SDS011;44782;0.000;0.000;2023-02-28T04:49:05;3.03;;;2.43;;
58992;SDS011;44782;0.000;0.000;2023-02-28T04:51:22;2.13;;;2.03;;
58992;SDS011;44782;0.000;0.000;2023-02-28T04:53:39;2.53;;;2.10;;
58992;SDS011;44782;0.000;0.000;2023-02-28T04:55:56;2.37;;;2.17;;
58992;SDS011;44782;0.000;0.000;2023-02-28T04:58:13;2.57;;;2.13;;
58992;SDS011;44782;0.000;0.000;2023-02-28T05:00:29;2.40;;;2.20;;
58992;SDS011;44782;0.000;0.000;2023-02-28T05:02:44;2.40;;;2.20;;
58992;SDS011;44782;0.000;0.000;2023-02-28T05:05:00;2.40;;;2.20;;
58992;SDS011;44782;0.000;0.000;2023-02-28T05:07:16;2.20;;;2.10;;
58992;SDS011;44782;0.000;0.000;2023-02-28T05:09:31;2.23;;;2.13;;
58992;SDS011;44782;0.000;0.000;2023-02-28T05:11:48;2.40;;;2.20;;
58992;SDS011;44782;0.000;0.000;2023-02-28T05:14:04;2.30;;;2.17;;
58992;SDS011;44782;0.000;0.000;2023-02-28T05:16:23;2.40;;;2.20;;
58992;SDS011;44782;0.000;0.000;2023-02-28T05:18:39;2.30;;;2.10;;
58992;SDS011;44782;0.000;0.000;2023-02-28T05:20:55;2.40;;;2.20;;
58992;SDS011;44782;0.000;0.000;2023-02-28T05:23:11;2.40;;;2.20;;
58992;SDS011;44782;0.000;0.000;2023-02-28T05:25:28;2.47;;;2.27;;
58992;SDS011;44782;0.000;0.000;2023-02-28T05:27:43;2.40;;;2.20;;
58992;SDS011;44782;0.000;0.000;2023-02-28T05:29:59;2.40;;;2.20;;
58992;SDS011;44782;0.000;0.000;2023-02-28T05:32:18;2.47;;;2.27;;
58992;SDS011;44782;0.000;0.000;2023-02-28T05:34:33;2.53;;;2.33;;
58992;SDS011;44782;0.000;0.000;2023-02-28T05:36:49;2.70;;;2.50;;
58992;SDS011;44782;0.000;0.000;2023-02-28T05:39:05;2.87;;;2.50;;
58992;SDS011;44782;0.000;0.000;2023-02-28T05:41:22;2.60;;;2.40;;
58992;SDS011;44782;0.000;0.000;2023-02-28T05:43:38;2.53;;;2.33;;
58992;SDS011;44782;0.000;0.000;2023-02-28T05:45:53;2.40;;;2.20;;
58992;SDS011;44782;0.000;0.000;2023-02-28T05:48:09;2.60;;;2.40;;
58992;SDS011;44782;0.000;0.000;2023-02-28T05:50:25;2.70;;;2.50;;
58992;SDS011;44782;0.000;0.000;2023-02-28T05:52:40;2.80;;;2.60;;
58992;SDS011;44782;0.000;0.000;2023-02-28T05:54:56;2.60;;;2.40;;
58992;SDS011;44782;0.000;0.000;2023-02-28T05:57:12;2.90;;;2.70;;
58992;SDS011;44782;0.000;0.000;2023-02-28T05:59:27;2.57;;;2.37;;
58992;SDS011;44782;0.000;0.000;2023-02-28T06:01:44;2.70;;;2.50;;
58992;SDS011;44782;0.000;0.000;2023-02-28T06:04:03;2.70;;;2.50;;
58992;SDS011;44782;0.000;0.000;2023-02-28T06:06:20;2.50;;;2.30;;
58992;SDS011;44782;0.000;0.000;2023-02-28T06:08:36;2.50;;;2.40;;
58992;SDS011;44782;0.000;0.000;2023-02-28T06:10:51;2.80;;;2.60;;
58992;SDS011;44782;0.000;0.000;2023-02-28T06:13:08;2.80;;;2.60;;
58992;SDS011;44782;0.000;0.000;2023-02-28T06:15:23;2.70;;;2.50;;
58992;SDS011;44782;0.000;0.000;2023-02-28T06:17:40;2.70;;;2.50;;
58992;SDS011;44782;0.000;0.000;2023-02-28T06:19:56;2.70;;;2.50;;
58992;SDS011;44782;0.000;0.000;2023-02-28T06:22:12;2.77;;;2.57;;
58992;SDS011;44782;0.000;0.000;2023-02-28T06:24:27;3.00;;;2.80;;
58992;SDS011;44782;0.000;0.000;2023-02-28T06:26:43;2.80;;;2.60;;
58992;SDS011;44782;0.000;0.000;2023-02-28T06:28:59;2.77;;;2.57;;
58992;SDS011;44782;0.000;0.000;2023-02-28T06:31:16;2.77;;;2.57;;
58992;SDS011;44782;0.000;0.000;2023-02-28T06:33:33;2.90;;;2.70;;
58992;SDS011;44782;0.000;0.000;2023-02-28T06:35:52;2.93;;;2.73;;
58992;SDS011;44782;0.000;0.000;2023-02-28T06:38:08;2.90;;;2.70;;
58992;SDS011;44782;0.000;0.000;2023-02-28T06:40:23;2.97;;;2.77;;
58992;SDS011;44782;0.000;0.000;2023-02-28T06:42:39;2.87;;;2.67;;
58992;SDS011;44782;0.000;0.000;2023-02-28T06:44:55;2.70;;;2.50;;
58992;SDS011;44782;0.000;0.000;2023-02-28T06:47:11;2.70;;;2.50;;
58992;SDS011;44782;0.000;0.000;2023-02-28T06:49:26;2.77;;;2.57;;
58992;SDS011;44782;0.000;0.000;2023-02-28T06:51:43;3.20;;;2.90;;
58992;SDS011;44782;0.000;0.000;2023-02-28T06:54:03;2.70;;;2.50;;
58992;SDS011;44782;0.000;0.000;2023-02-28T06:56:19;3.00;;;2.80;;
58992;SDS011;44782;0.000;0.000;2023-02-28T06:58:38;2.87;;;2.67;;
58992;SDS011;44782;0.000;0.000;2023-02-28T07:00:54;3.00;;;2.80;;
58992;SDS011;44782;0.000;0.000;2023-02-28T07:03:10;3.00;;;2.80;;
58992;SDS011;44782;0.000;0.000;2023-02-28T07:05:26;3.30;;;3.00;;
58992;SDS011;44782;0.000;0.000;2023-02-28T07:07:42;2.93;;;2.63;;
58992;SDS011;44782;0.000;0.000;2023-02-28T07:10:00;2.83;;;2.63;;
58992;SDS011;44782;0.000;0.000;2023-02-28T07:12:15;3.73;;;2.73;;
58992;SDS011;44782;0.000;0.000;2023-02-28T07:14:31;3.10;;;2.90;;
58992;SDS011;44782;0.000;0.000;2023-02-28T07:16:47;2.80;;;2.60;;
58992;SDS011;44782;0.000;0.000;2023-02-28T07:19:02;3.07;;;2.87;;
58992;SDS011;44782;0.000;0.000;2023-02-28T07:21:18;3.17;;;2.90;;
58992;SDS011;44782;0.000;0.000;2023-02-28T07:23:34;3.23;;;2.93;;
58992;SDS011;44782;0.000;0.000;2023-02-28T07:25:52;3.17;;;2.97;;
58992;SDS011;44782;0.000;0.000;2023-02-28T07:28:08;3.20;;;3.00;;
58992;SDS011;44782;0.000;0.000;2023-02-28T07:30:24;3.40;;;3.07;;
58992;SDS011;44782;0.000;0.000;2023-02-28T07:32:39;2.90;;;2.70;;
58992;SDS011;44782;0.000;0.000;2023-02-28T07:34:55;3.30;;;3.00;;
58992;SDS011;44782;0.000;0.000;2023-02-28T07:37:11;3.30;;;2.90;;
58992;SDS011;44782;0.000;0.000;2023-02-28T07:39:26;3.50;;;3.20;;
58992;SDS011;44782;0.000;0.000;2023-02-28T07:41:42;3.33;;;3.03;;
58992;SDS011;44782;0.000;0.000;2023-02-28T07:43:58;3.07;;;2.80;;
58992;SDS011;44782;0.000;0.000;2023-02-28T07:46:15;3.47;;;2.90;;
58992;SDS011;44782;0.000;0.000;2023-02-28T07:48:31;3.37;;;3.13;;
58992;SDS011;44782;0.000;0.000;2023-02-28T07:50:54;3.23;;;2.97;;
58992;SDS011;44782;0.000;0.000;2023-02-28T07:53:10;3.27;;;3.07;;
58992;SDS011;44782;0.000;0.000;2023-02-28T07:55:26;3.40;;;3.10;;
58992;SDS011;44782;0.000;0.000;2023-02-28T07:57:42;3.43;;;3.13;;
58992;SDS011;44782;0.000;0.000;2023-02-28T07:59:57;3.53;;;3.23;;
58992;SDS011;44782;0.000;0.000;2023-02-28T08:02:13;3.40;;;3.10;;
58992;SDS011;44782;0.000;0.000;2023-02-28T08:04:33;3.47;;;3.17;;
58992;SDS011;44782;0.000;0.000;2023-02-28T08:06:49;3.10;;;2.90;;
58992;SDS011;44782;0.000;0.000;2023-02-28T08:09:07;3.70;;;3.40;;
58992;SDS011;44782;0.000;0.000;2023-02-28T08:11:22;3.33;;;3.00;;
58992;SDS011;44782;0.000;0.000;2023-02-28T08:13:39;3.50;;;3.20;;
58992;SDS011;44782;0.000;0.000;2023-02-28T08:15:55;3.50;;;3.20;;
58992;SDS011;44782;0.000;0.000;2023-02-28T08:18:11;3.67;;;3.37;;
58992;SDS011;44782;0.000;0.000;2023-02-28T08:20:27;3.70;;;3.40;;
58992;SDS011;44782;0.000;0.000;2023-02-28T08:22:42;3.30;;;3.00;;
58992;SDS011;44782;0.000;0.000;2023-02-28T08:24:59;3.37;;;3.07;;
58992;SDS011;44782;0.000;0.000;2023-02-28T08:27:14;3.47;;;3.17;;
58992;SDS011;44782;0.000;0.000;2023-02-28T08:29:30;3.53;;;3.27;;
58992;SDS011;44782;0.000;0.000;2023-02-28T08:31:46;3.60;;;3.30;;
58992;SDS011;44782;0.000;0.000;2023-02-28T08:34:07;3.30;;;3.10;;
58992;SDS011;44782;0.000;0.000;2023-02-28T08:36:25;3.50;;;3.20;;
58992;SDS011;44782;0.000;0.000;2023-02-28T08:38:43;3.13;;;2.90;;
58992;SDS011;44782;0.000;0.000;2023-02-28T08:41:06;3.20;;;3.00;;
58992;SDS011;44782;0.000;0.000;2023-02-28T08:43:24;2.90;;;2.70;;
58992;SDS011;44782;0.000;0.000;2023-02-28T08:45:39;2.70;;;2.50;;
58992;SDS011;44782;0.000;0.000;2023-02-28T08:47:55;2.83;;;2.63;;
58992;SDS011;44782;0.000;0.000;2023-02-28T08:50:11;3.30;;;3.00;;
58992;SDS011;44782;0.000;0.000;2023-02-28T08:52:29;3.10;;;2.90;;
58992;SDS011;44782;0.000;0.000;2023-02-28T08:54:45;3.00;;;2.80;;
58992;SDS011;44782;0.000;0.000;2023-02-28T08:57:01;3.13;;;2.93;;
58992;SDS011;44782;0.000;0.000;2023-02-28T08:59:17;3.40;;;3.10;;
58992;SDS011;44782;0.000;0.000;2023-02-28T09:01:33;3.20;;;2.90;;
58992;SDS011;44782;0.000;0.000;2023-02-28T09:03:49;3.00;;;2.80;;
58992;SDS011;44782;0.000;0.000;2023-02-28T09:06:06;3.03;;;2.80;;
58992;SDS011;44782;0.000;0.000;2023-02-28T09:08:23;3.13;;;2.83;;
58992;SDS011;44782;0.000;0.000;2023-02-28T09:10:39;3.10;;;2.80;;
58992;SDS011;44782;0.000;0.000;2023-02-28T09:12:54;3.13;;;2.90;;
58992;SDS011;44782;0.000;0.000;2023-02-28T09:15:10;3.07;;;2.77;;
58992;SDS011;44782;0.000;0.000;2023-02-28T09:17:26;2.73;;;2.53;;
58992;SDS011;44782;0.000;0.000;2023-02-28T09:19:41;3.00;;;2.80;;
58992;SDS011;44782;0.000;0.000;2023-02-28T09:21:57;2.97;;;2.67;;
58992;SDS011;44782;0.000;0.000;2023-02-28T09:24:13;3.10;;;2.90;;
58992;SDS011;44782;0.000;0.000;2023-02-28T09:26:30;3.27;;;2.97;;
58992;SDS011;44782;0.000;0.000;2023-02-28T09:28:45;3.47;;;2.90;;
58992;SDS011;44782;0.000;0.000;2023-02-28T09:31:01;2.90;;;2.70;;
58992;SDS011;44782;0.000;0.000;2023-02-28T09:33:19;2.90;;;2.70;;
58992;SDS011;44782;0.000;0.000;2023-02-28T09:35:36;3.33;;;2.70;;
58992;SDS011;44782;0.000;0.000;2023-02-28T09:37:52;3.00;;;2.80;;
58992;SDS011;44782;0.000;0.000;2023-02-28T09:40:09;2.83;;;2.63;;
58992;SDS011;44782;0.000;0.000;2023-02-28T09:42:32;3.30;;;3.00;;
58992;SDS011;44782;0.000;0.000;2023-02-28T09:44:48;2.90;;;2.70;;
58992;SDS011;44782;0.000;0.000;2023-02-28T09:49:46;2.83;;;2.63;;
58992;SDS011;44782;0.000;0.000;2023-02-28T09:52:09;3.07;;;2.80;;
58992;SDS011;44782;0.000;0.000;2023-02-28T09:54:29;2.90;;;2.70;;
58992;SDS011;44782;0.000;0.000;2023-02-28T10:06:49;2.70;;;2.50;;
58992;SDS011;44782;0.000;0.000;2023-02-28T10:09:09;2.53;;;2.33;;
58992;SDS011;44782;0.000;0.000;2023-02-28T10:11:30;2.53;;;2.33;;
58992;SDS011;44782;0.000;0.000;2023-02-28T10:16:21;2.40;;;2.20;;
58992;SDS011;44782;0.000;0.000;2023-02-28T10:19:35;2.40;;;2.20;;
58992;SDS011;44782;0.000;0.000;2023-02-28T10:21:43;2.50;;;2.30;;
58992;SDS011;44782;0.000;0.000;2023-02-28T10:24:11;2.53;;;2.33;;
58992;SDS011;44782;0.000;0.000;2023-02-28T10:26:43;2.50;;;2.30;;
58992;SDS011;44782;0.000;0.000;2023-02-28T10:29:00;2.50;;;2.30;;
58992;SDS011;44782;0.000;0.000;2023-02-28T10:31:18;2.10;;;1.90;;
58992;SDS011;44782;0.000;0.000;2023-02-28T10:33:34;2.80;;;2.43;;
58992;SDS011;44782;0.000;0.000;2023-02-28T10:35:51;2.20;;;2.10;;
58992;SDS011;44782;0.000;0.000;2023-02-28T10:38:10;2.30;;;2.10;;
58992;SDS011;44782;0.000;0.000;2023-02-28T10:40:33;2.40;;;2.20;;
58992;SDS011;44782;0.000;0.000;2023-02-28T10:42:54;2.33;;;2.17;;
58992;SDS011;44782;0.000;0.000;2023-02-28T10:45:13;2.03;;;1.93;;
58992;SDS011;44782;0.000;0.000;2023-02-28T10:47:30;2.13;;;2.03;;
58992;SDS011;44782;0.000;0.000;2023-02-28T10:49:48;2.03;;;1.93;;
58992;SDS011;44782;0.000;0.000;2023-02-28T10:52:07;2.20;;;2.00;;
58992;SDS011;44782;0.000;0.000;2023-02-28T10:54:29;2.50;;;2.30;;
58992;SDS011;44782;0.000;0.000;2023-02-28T10:57:06;2.10;;;2.00;;
58992;SDS011;44782;0.000;0.000;2023-02-28T10:59:36;2.00;;;1.90;;
58992;SDS011;44782;0.000;0.000;2023-02-28T11:01:52;2.10;;;1.90;;
58992;SDS011;44782;0.000;0.000;2023-02-28T11:06:44;1.90;;;1.80;;
58992;SDS011;44782;0.000;0.000;2023-02-28T11:09:04;1.90;;;1.80;;
58992;SDS011;44782;0.000;0.000;2023-02-28T11:11:40;2.27;;;2.10;;
58992;SDS011;44782;0.000;0.000;2023-02-28T11:14:03;3.37;;;2.30;;
58992;SDS011;44782;0.000;0.000;2023-02-28T11:16:20;2.03;;;1.83;;
58992;SDS011;44782;0.000;0.000;2023-02-28T11:18:39;2.23;;;2.03;;
58992;SDS011;44782;0.000;0.000;2023-02-28T11:21:03;1.93;;;1.83;;
58992;SDS011;44782;0.000;0.000;2023-02-28T11:23:19;1.80;;;1.70;;
58992;SDS011;44782;0.000;0.000;2023-02-28T11:25:36;2.13;;;1.97;;
58992;SDS011;44782;0.000;0.000;2023-02-28T11:27:54;1.80;;;1.70;;
58992;SDS011;44782;0.000;0.000;2023-02-28T11:30:22;1.90;;;1.80;;
58992;SDS011;44782;0.000;0.000;2023-02-28T11:32:39;1.67;;;1.57;;
58992;SDS011;44782;0.000;0.000;2023-02-28T11:37:26;1.83;;;1.70;;
58992;SDS011;44782;0.000;0.000;2023-02-28T11:39:44;1.97;;;1.87;;
58992;SDS011;44782;0.000;0.000;2023-02-28T11:44:56;2.27;;;2.00;;
58992;SDS011;44782;0.000;0.000;2023-02-28T11:55:50;2.00;;;1.80;;
58992;SDS011;44782;0.000;0.000;2023-02-28T11:58:20;1.90;;;1.73;;
58992;SDS011;44782;0.000;0.000;2023-02-28T12:05:49;1.70;;;1.60;;
58992;SDS011;44782;0.000;0.000;2023-02-28T12:10:30;1.73;;;1.60;;
58992;SDS011;44782;0.000;0.000;2023-02-28T12:13:12;1.70;;;1.60;;
58992;SDS011;44782;0.000;0.000;2023-02-28T12:20:54;1.80;;;1.70;;
58992;SDS011;44782;0.000;0.000;2023-02-28T12:25:54;1.83;;;1.73;;
58992;SDS011;44782;0.000;0.000;2023-02-28T12:28:18;1.70;;;1.60;;
58992;SDS011;44782;0.000;0.000;2023-02-28T12:30:49;2.27;;;1.70;;
58992;SDS011;44782;0.000;0.000;2023-02-28T12:33:10;1.70;;;1.60;;
58992;SDS011;44782;0.000;0.000;2023-02-28T12:35:33;1.80;;;1.70;;
58992;SDS011;44782;0.000;0.000;2023-02-28T12:37:55;1.87;;;1.77;;
58992;SDS011;44782;0.000;0.000;2023-02-28T12:40:19;2.10;;;1.90;;
58992;SDS011;44782;0.000;0.000;2023-02-28T12:42:48;2.03;;;1.73;;
58992;SDS011;44782;0.000;0.000;2023-02-28T12:45:18;1.73;;;1.63;;
58992;SDS011;44782;0.000;0.000;2023-02-28T12:47:37;1.90;;;1.70;;
58992;SDS011;44782;0.000;0.000;2023-02-28T12:49:56;1.90;;;1.80;;
58992;SDS011;44782;0.000;0.000;2023-02-28T12:52:23;1.80;;;1.70;;
58992;SDS011;44782;0.000;0.000;2023-02-28T12:55:00;1.87;;;1.77;;
58992;SDS011;44782;0.000;0.000;2023-02-28T12:59:50;1.80;;;1.70;;
58992;SDS011;44782;0.000;0.000;2023-02-28T13:09:57;1.70;;;1.60;;
58992;SDS011;44782;0.000;0.000;2023-02-28T13:12:15;1.60;;;1.50;;
58992;SDS011;44782;0.000;0.000;2023-02-28T13:14:37;1.80;;;1.70;;
58992;SDS011;44782;0.000;0.000;2023-02-28T13:16:58;1.57;;;1.40;;
58992;SDS011;44782;0.000;0.000;2023-02-28T13:19:31;1.53;;;1.43;;
58992;SDS011;44782;0.000;0.000;2023-02-28T13:21:49;1.60;;;1.50;;
58992;SDS011;44782;0.000;0.000;2023-02-28T13:24:08;1.70;;;1.60;;
58992;SDS011;44782;0.000;0.000;2023-02-28T13:31:04;1.97;;;1.80;;
58992;SDS011;44782;0.000;0.000;2023-02-28T13:38:25;1.70;;;1.60;;
58992;SDS011;44782;0.000;0.000;2023-02-28T13:41:18;1.50;;;1.40;;
58992;SDS011;44782;0.000;0.000;2023-02-28T13:46:26;1.60;;;1.50;;
58992;SDS011;44782;0.000;0.000;2023-02-28T13:48:42;1.53;;;1.43;;
58992;SDS011;44782;0.000;0.000;2023-02-28T13:50:58;1.67;;;1.57;;
58992;SDS011;44782;0.000;0.000;2023-02-28T14:03:23;1.50;;;1.40;;
58992;SDS011;44782;0.000;0.000;2023-02-28T14:08:29;1.53;;;1.43;;
58992;SDS011;44782;0.000;0.000;2023-02-28T14:10:49;1.40;;;1.30;;
58992;SDS011;44782;0.000;0.000;2023-02-28T14:16:00;1.40;;;1.30;;
58992;SDS011;44782;0.000;0.000;2023-02-28T14:18:21;1.57;;;1.47;;
58992;SDS011;44782;0.000;0.000;2023-02-28T14:20:40;1.60;;;1.50;;
58992;SDS011;44782;0.000;0.000;2023-02-28T14:33:17;1.80;;;1.70;;
58992;SDS011;44782;0.000;0.000;2023-02-28T14:38:47;1.43;;;1.33;;
58992;SDS011;44782;0.000;0.000;2023-02-28T14:41:14;1.40;;;1.30;;
58992;SDS011;44782;0.000;0.000;2023-02-28T14:43:52;1.70;;;1.60;;
58992;SDS011;44782;0.000;0.000;2023-02-28T14:46:10;1.50;;;1.40;;
58992;SDS011;44782;0.000;0.000;2023-02-28T14:48:28;1.40;;;1.30;;
58992;SDS011;44782;0.000;0.000;2023-02-28T14:50:49;1.40;;;1.30;;
58992;SDS011;44782;0.000;0.000;2023-02-28T14:53:10;1.40;;;1.30;;
58992;SDS011;44782;0.000;0.000;2023-02-28T14:55:34;1.30;;;1.23;;
58992;SDS011;44782;0.000;0.000;2023-02-28T14:57:54;1.50;;;1.40;;
58992;SDS011;44782;0.000;0.000;2023-02-28T15:00:14;1.60;;;1.50;;
58992;SDS011;44782;0.000;0.000;2023-02-28T15:02:35;1.50;;;1.40;;
58992;SDS011;44782;0.000;0.000;2023-02-28T15:04:55;1.50;;;1.40;;
58992;SDS011;44782;0.000;0.000;2023-02-28T15:07:15;1.40;;;1.30;;
58992;SDS011;44782;0.000;0.000;2023-02-28T15:09:32;1.40;;;1.30;;
58992;SDS011;44782;0.000;0.000;2023-02-28T15:11:48;1.50;;;1.40;;
58992;SDS011;44782;0.000;0.000;2023-02-28T15:14:05;1.50;;;1.40;;
58992;SDS011;44782;0.000;0.000;2023-02-28T15:21:13;1.60;;;1.50;;
58992;SDS011;44782;0.000;0.000;2023-02-28T15:23:34;1.50;;;1.40;;
58992;SDS011;44782;0.000;0.000;2023-02-28T15:25:51;1.60;;;1.50;;
58992;SDS011;44782;0.000;0.000;2023-02-28T15:28:11;1.50;;;1.40;;
58992;SDS011;44782;0.000;0.000;2023-02-28T15:30:34;1.50;;;1.40;;
58992;SDS011;44782;0.000;0.000;2023-02-28T15:37:53;1.40;;;1.30;;
58992;SDS011;44782;0.000;0.000;2023-02-28T15:43:16;1.50;;;1.40;;
58992;SDS011;44782;0.000;0.000;2023-02-28T15:48:04;1.47;;;1.37;;
58992;SDS011;44782;0.000;0.000;2023-02-28T15:50:27;1.33;;;1.23;;
58992;SDS011;44782;0.000;0.000;2023-02-28T15:52:44;1.40;;;1.30;;
58992;SDS011;44782;0.000;0.000;2023-02-28T15:55:10;1.50;;;1.40;;
58992;SDS011;44782;0.000;0.000;2023-02-28T15:57:38;1.37;;;1.30;;
58992;SDS011;44782;0.000;0.000;2023-02-28T15:59:59;1.50;;;1.40;;
58992;SDS011;44782;0.000;0.000;2023-02-28T16:02:20;1.60;;;1.50;;
58992;SDS011;44782;0.000;0.000;2023-02-28T16:04:56;1.40;;;1.30;;
58992;SDS011;44782;0.000;0.000;2023-02-28T16:07:13;1.50;;;1.40;;
58992;SDS011;44782;0.000;0.000;2023-02-28T16:09:29;1.30;;;1.20;;
58992;SDS011;44782;0.000;0.000;2023-02-28T16:11:49;1.40;;;1.30;;
58992;SDS011;44782;0.000;0.000;2023-02-28T16:14:11;1.60;;;1.50;;
58992;SDS011;44782;0.000;0.000;2023-02-28T16:16:30;1.40;;;1.30;;
58992;SDS011;44782;0.000;0.000;2023-02-28T16:18:47;1.20;;;1.20;;
58992;SDS011;44782;0.000;0.000;2023-02-28T16:21:03;1.20;;;1.20;;
58992;SDS011;44782;0.000;0.000;2023-02-28T16:23:19;1.60;;;1.50;;
58992;SDS011;44782;0.000;0.000;2023-02-28T16:25:35;1.33;;;1.23;;
58992;SDS011;44782;0.000;0.000;2023-02-28T16:27:55;1.40;;;1.30;;
58992;SDS011;44782;0.000;0.000;2023-02-28T16:30:16;1.33;;;1.23;;
58992;SDS011;44782;0.000;0.000;2023-02-28T16:32:40;1.63;;;1.50;;
58992;SDS011;44782;0.000;0.000;2023-02-28T16:34:56;1.40;;;1.30;;
58992;SDS011;44782;0.000;0.000;2023-02-28T16:37:12;1.30;;;1.20;;
58992;SDS011;44782;0.000;0.000;2023-02-28T16:39:29;1.40;;;1.30;;
58992;SDS011;44782;0.000;0.000;2023-02-28T16:41:45;1.53;;;1.43;;
58992;SDS011;44782;0.000;0.000;2023-02-28T16:44:02;1.40;;;1.30;;
58992;SDS011;44782;0.000;0.000;2023-02-28T16:46:35;1.40;;;1.30;;